sensor_id;sensor_type;location;lat;lon;timestamp;P1;durP1;ratioP1;P2;durP2;ratioP2
62010;SDS011;47967;51.756;10.174;2022-10-17T04:01:56;4.82;;;3.40;;
62010;SDS011;47967;51.756;10.174;2022-10-17T04:06:00;4.00;;;2.88;;
62010;SDS011;47967;51.756;10.174;2022-10-17T04:10:06;4.68;;;2.90;;
62010;SDS011;47967;51.756;10.174;2022-10-17T04:14:09;4.30;;;2.80;;
62010;SDS011;47967;51.756;10.174;2022-10-17T04:18:14;5.18;;;2.85;;
62010;SDS011;47967;51.756;10.174;2022-10-17T04:22:17;5.40;;;2.70;;
62010;SDS011;47967;51.756;10.174;2022-10-17T04:26:20;6.10;;;3.13;;
62010;SDS011;47967;51.756;10.174;2022-10-17T04:30:23;7.03;;;2.90;;
62010;SDS011;47967;51.756;10.174;2022-10-17T04:34:27;8.57;;;2.80;;
62010;SDS011;47967;51.756;10.174;2022-10-17T04:38:30;4.13;;;2.70;;
62010;SDS011;47967;51.756;10.174;2022-10-17T04:42:33;2.90;;;2.40;;
62010;SDS011;47967;51.756;10.174;2022-10-17T04:46:37;4.03;;;2.70;;
62010;SDS011;47967;51.756;10.174;2022-10-17T04:50:51;7.38;;;2.92;;
62010;SDS011;47967;51.756;10.174;2022-10-17T04:55:05;4.88;;;2.70;;
62010;SDS011;47967;51.756;10.174;2022-10-17T04:59:09;7.85;;;2.95;;
62010;SDS011;47967;51.756;10.174;2022-10-17T05:03:13;4.32;;;2.67;;
62010;SDS011;47967;51.756;10.174;2022-10-17T05:07:17;4.05;;;2.95;;
62010;SDS011;47967;51.756;10.174;2022-10-17T05:11:28;7.47;;;3.75;;
62010;SDS011;47967;51.756;10.174;2022-10-17T05:15:31;7.05;;;3.67;;
62010;SDS011;47967;51.756;10.174;2022-10-17T05:19:35;5.70;;;3.53;;
62010;SDS011;47967;51.756;10.174;2022-10-17T05:23:40;5.38;;;3.53;;
62010;SDS011;47967;51.756;10.174;2022-10-17T05:27:46;7.20;;;3.50;;
62010;SDS011;47967;51.756;10.174;2022-10-17T05:31:49;4.00;;;3.00;;
62010;SDS011;47967;51.756;10.174;2022-10-17T05:35:52;8.15;;;3.60;;
62010;SDS011;47967;51.756;10.174;2022-10-17T05:44:00;8.82;;;4.05;;
62010;SDS011;47967;51.756;10.174;2022-10-17T05:48:15;6.60;;;3.70;;
62010;SDS011;47967;51.756;10.174;2022-10-17T05:56:40;7.15;;;2.90;;
62010;SDS011;47967;51.756;10.174;2022-10-17T06:00:42;5.63;;;3.20;;
62010;SDS011;47967;51.756;10.174;2022-10-17T06:04:46;5.80;;;3.05;;
62010;SDS011;47967;51.756;10.174;2022-10-17T06:08:52;5.25;;;2.75;;
62010;SDS011;47967;51.756;10.174;2022-10-17T06:13:01;3.35;;;2.88;;
62010;SDS011;47967;51.756;10.174;2022-10-17T06:17:04;4.07;;;2.88;;
62010;SDS011;47967;51.756;10.174;2022-10-17T06:21:07;7.10;;;2.93;;
62010;SDS011;47967;51.756;10.174;2022-10-17T06:25:16;5.60;;;2.88;;
62010;SDS011;47967;51.756;10.174;2022-10-17T06:29:20;6.57;;;3.65;;
62010;SDS011;47967;51.756;10.174;2022-10-17T06:33:25;12.43;;;6.07;;
62010;SDS011;47967;51.756;10.174;2022-10-17T06:37:29;12.60;;;5.27;;
62010;SDS011;47967;51.756;10.174;2022-10-17T06:41:39;10.77;;;4.47;;
62010;SDS011;47967;51.756;10.174;2022-10-17T06:45:45;6.22;;;3.08;;
62010;SDS011;47967;51.756;10.174;2022-10-17T06:49:51;7.28;;;3.47;;
62010;SDS011;47967;51.756;10.174;2022-10-17T06:54:17;7.95;;;3.20;;
62010;SDS011;47967;51.756;10.174;2022-10-17T06:58:22;6.18;;;2.83;;
62010;SDS011;47967;51.756;10.174;2022-10-17T07:02:36;6.80;;;2.88;;
62010;SDS011;47967;51.756;10.174;2022-10-17T07:06:39;3.17;;;2.60;;
62010;SDS011;47967;51.756;10.174;2022-10-17T07:10:48;3.88;;;2.65;;
62010;SDS011;47967;51.756;10.174;2022-10-17T07:14:51;5.68;;;2.78;;
62010;SDS011;47967;51.756;10.174;2022-10-17T07:18:56;9.30;;;3.23;;
62010;SDS011;47967;51.756;10.174;2022-10-17T07:22:58;4.93;;;3.00;;
62010;SDS011;47967;51.756;10.174;2022-10-17T07:27:01;5.78;;;2.78;;
62010;SDS011;47967;51.756;10.174;2022-10-17T07:31:05;6.55;;;2.60;;
62010;SDS011;47967;51.756;10.174;2022-10-17T07:35:11;8.50;;;2.67;;
62010;SDS011;47967;51.756;10.174;2022-10-17T07:39:15;6.15;;;2.70;;
62010;SDS011;47967;51.756;10.174;2022-10-17T07:43:19;5.57;;;2.85;;
62010;SDS011;47967;51.756;10.174;2022-10-17T07:47:22;5.20;;;2.47;;
62010;SDS011;47967;51.756;10.174;2022-10-17T07:51:27;6.85;;;2.70;;
62010;SDS011;47967;51.756;10.174;2022-10-17T07:55:30;2.20;;;2.00;;
62010;SDS011;47967;51.756;10.174;2022-10-17T07:59:32;6.27;;;2.60;;
62010;SDS011;47967;51.756;10.174;2022-10-17T08:07:39;8.35;;;2.50;;
62010;SDS011;47967;51.756;10.174;2022-10-17T08:11:42;3.13;;;2.10;;
62010;SDS011;47967;51.756;10.174;2022-10-17T08:15:45;3.90;;;2.08;;
62010;SDS011;47967;51.756;10.174;2022-10-17T08:19:48;2.47;;;2.25;;
62010;SDS011;47967;51.756;10.174;2022-10-17T08:23:52;8.10;;;2.33;;
62010;SDS011;47967;51.756;10.174;2022-10-17T08:27:55;5.95;;;2.42;;
62010;SDS011;47967;51.756;10.174;2022-10-17T08:31:59;3.67;;;2.20;;
62010;SDS011;47967;51.756;10.174;2022-10-17T08:36:04;4.80;;;2.22;;
62010;SDS011;47967;51.756;10.174;2022-10-17T08:40:10;4.82;;;2.28;;
62010;SDS011;47967;51.756;10.174;2022-10-17T08:44:24;6.30;;;2.20;;
62010;SDS011;47967;51.756;10.174;2022-10-17T08:48:35;7.80;;;2.13;;
62010;SDS011;47967;51.756;10.174;2022-10-17T08:52:47;6.47;;;2.13;;
62010;SDS011;47967;51.756;10.174;2022-10-17T08:56:55;5.53;;;2.22;;
62010;SDS011;47967;51.756;10.174;2022-10-17T09:01:01;4.32;;;2.30;;
62010;SDS011;47967;51.756;10.174;2022-10-17T09:05:19;3.47;;;2.10;;
62010;SDS011;47967;51.756;10.174;2022-10-17T09:09:32;5.15;;;2.67;;
62010;SDS011;47967;51.756;10.174;2022-10-17T09:13:45;5.30;;;2.30;;
62010;SDS011;47967;51.756;10.174;2022-10-17T09:17:58;6.15;;;2.25;;
62010;SDS011;47967;51.756;10.174;2022-10-17T09:22:04;4.72;;;2.13;;
62010;SDS011;47967;51.756;10.174;2022-10-17T09:26:11;5.40;;;2.30;;
62010;SDS011;47967;51.756;10.174;2022-10-17T09:30:19;5.68;;;2.33;;
62010;SDS011;47967;51.756;10.174;2022-10-17T09:34:45;5.32;;;2.00;;
62010;SDS011;47967;51.756;10.174;2022-10-17T09:38:49;5.85;;;2.35;;
62010;SDS011;47967;51.756;10.174;2022-10-17T09:42:54;3.97;;;2.17;;
62010;SDS011;47967;51.756;10.174;2022-10-17T09:51:24;4.78;;;2.30;;
62010;SDS011;47967;51.756;10.174;2022-10-17T09:55:30;8.57;;;2.78;;
62010;SDS011;47967;51.756;10.174;2022-10-17T09:59:39;4.47;;;2.08;;
62010;SDS011;47967;51.756;10.174;2022-10-17T10:03:45;8.13;;;2.33;;
62010;SDS011;47967;51.756;10.174;2022-10-17T10:07:59;5.00;;;2.30;;
62010;SDS011;47967;51.756;10.174;2022-10-17T10:12:05;3.80;;;2.13;;
62010;SDS011;47967;51.756;10.174;2022-10-17T10:16:19;2.97;;;2.20;;
62010;SDS011;47967;51.756;10.174;2022-10-17T10:20:27;4.93;;;2.22;;
62010;SDS011;47967;51.756;10.174;2022-10-17T10:24:32;8.00;;;2.50;;
62010;SDS011;47967;51.756;10.174;2022-10-17T10:28:35;4.05;;;1.95;;
62010;SDS011;47967;51.756;10.174;2022-10-17T10:32:38;3.20;;;2.17;;
62010;SDS011;47967;51.756;10.174;2022-10-17T10:36:44;3.85;;;2.35;;
62010;SDS011;47967;51.756;10.174;2022-10-17T10:40:50;3.58;;;1.92;;
62010;SDS011;47967;51.756;10.174;2022-10-17T10:44:56;5.32;;;2.20;;
62010;SDS011;47967;51.756;10.174;2022-10-17T10:49:02;7.93;;;2.30;;
62010;SDS011;47967;51.756;10.174;2022-10-17T10:53:10;2.85;;;2.33;;
62010;SDS011;47967;51.756;10.174;2022-10-17T10:57:26;4.75;;;2.40;;
62010;SDS011;47967;51.756;10.174;2022-10-17T11:01:33;3.17;;;2.08;;
62010;SDS011;47967;51.756;10.174;2022-10-17T11:05:42;6.00;;;2.13;;
62010;SDS011;47967;51.756;10.174;2022-10-17T11:09:50;8.48;;;2.50;;
62010;SDS011;47967;51.756;10.174;2022-10-17T11:13:57;6.45;;;2.35;;
62010;SDS011;47967;51.756;10.174;2022-10-17T11:18:05;3.90;;;1.90;;
62010;SDS011;47967;51.756;10.174;2022-10-17T11:22:12;2.60;;;1.85;;
62010;SDS011;47967;51.756;10.174;2022-10-17T11:26:20;4.13;;;2.30;;
62010;SDS011;47967;51.756;10.174;2022-10-17T11:30:27;9.07;;;2.10;;
62010;SDS011;47967;51.756;10.174;2022-10-17T11:34:39;6.10;;;2.20;;
62010;SDS011;47967;51.756;10.174;2022-10-17T11:38:46;7.10;;;2.33;;
62010;SDS011;47967;51.756;10.174;2022-10-17T11:42:54;2.22;;;1.70;;
62010;SDS011;47967;51.756;10.174;2022-10-17T11:47:03;5.88;;;2.00;;
62010;SDS011;47967;51.756;10.174;2022-10-17T11:51:13;6.07;;;2.22;;
62010;SDS011;47967;51.756;10.174;2022-10-17T11:55:36;2.95;;;1.83;;
62010;SDS011;47967;51.756;10.174;2022-10-17T11:59:46;4.85;;;2.03;;
62010;SDS011;47967;51.756;10.174;2022-10-17T12:04:05;4.60;;;2.10;;
62010;SDS011;47967;51.756;10.174;2022-10-17T12:08:19;3.25;;;2.08;;
62010;SDS011;47967;51.756;10.174;2022-10-17T12:12:32;3.30;;;1.80;;
62010;SDS011;47967;51.756;10.174;2022-10-17T12:16:45;3.03;;;1.80;;
62010;SDS011;47967;51.756;10.174;2022-10-17T12:20:53;2.55;;;1.75;;
62010;SDS011;47967;51.756;10.174;2022-10-17T12:24:58;4.90;;;2.08;;
62010;SDS011;47967;51.756;10.174;2022-10-17T12:29:02;3.47;;;1.75;;
62010;SDS011;47967;51.756;10.174;2022-10-17T12:37:42;4.32;;;1.80;;
62010;SDS011;47967;51.756;10.174;2022-10-17T12:42:01;3.20;;;1.55;;
62010;SDS011;47967;51.756;10.174;2022-10-17T12:46:04;3.88;;;1.73;;
62010;SDS011;47967;51.756;10.174;2022-10-17T12:54:54;3.80;;;1.85;;
62010;SDS011;47967;51.756;10.174;2022-10-17T12:59:13;4.85;;;1.73;;
62010;SDS011;47967;51.756;10.174;2022-10-17T13:03:19;2.40;;;1.80;;
62010;SDS011;47967;51.756;10.174;2022-10-17T13:07:24;5.45;;;1.67;;
62010;SDS011;47967;51.756;10.174;2022-10-17T13:11:30;3.13;;;1.75;;
62010;SDS011;47967;51.756;10.174;2022-10-17T13:15:34;6.32;;;1.83;;
62010;SDS011;47967;51.756;10.174;2022-10-17T13:19:39;2.55;;;1.77;;
62010;SDS011;47967;51.756;10.174;2022-10-17T13:23:43;4.13;;;1.90;;
62010;SDS011;47967;51.756;10.174;2022-10-17T13:27:49;6.22;;;1.98;;
62010;SDS011;47967;51.756;10.174;2022-10-17T13:31:54;3.35;;;1.88;;
62010;SDS011;47967;51.756;10.174;2022-10-17T13:36:02;3.35;;;1.90;;
62010;SDS011;47967;51.756;10.174;2022-10-17T13:40:13;3.92;;;1.85;;
62010;SDS011;47967;51.756;10.174;2022-10-17T13:44:39;6.35;;;1.83;;
62010;SDS011;47967;51.756;10.174;2022-10-17T13:48:43;7.03;;;2.03;;
62010;SDS011;47967;51.756;10.174;2022-10-17T13:52:46;4.18;;;1.80;;
62010;SDS011;47967;51.756;10.174;2022-10-17T13:56:54;4.40;;;1.65;;
62010;SDS011;47967;51.756;10.174;2022-10-17T14:00:58;3.97;;;1.95;;
62010;SDS011;47967;51.756;10.174;2022-10-17T14:05:02;7.50;;;2.00;;
62010;SDS011;47967;51.756;10.174;2022-10-17T14:09:20;2.80;;;1.67;;
62010;SDS011;47967;51.756;10.174;2022-10-17T14:13:25;3.90;;;1.70;;
62010;SDS011;47967;51.756;10.174;2022-10-17T14:17:31;3.50;;;1.80;;
62010;SDS011;47967;51.756;10.174;2022-10-17T14:21:35;3.53;;;1.70;;
62010;SDS011;47967;51.756;10.174;2022-10-17T14:25:45;3.92;;;1.80;;
62010;SDS011;47967;51.756;10.174;2022-10-17T14:29:51;3.15;;;1.60;;
62010;SDS011;47967;51.756;10.174;2022-10-17T14:33:56;3.80;;;1.92;;
62010;SDS011;47967;51.756;10.174;2022-10-17T14:38:03;7.32;;;2.15;;
62010;SDS011;47967;51.756;10.174;2022-10-17T14:42:15;3.92;;;1.90;;
62010;SDS011;47967;51.756;10.174;2022-10-17T14:46:19;6.18;;;1.80;;
62010;SDS011;47967;51.756;10.174;2022-10-17T14:54:27;4.47;;;2.17;;
62010;SDS011;47967;51.756;10.174;2022-10-17T14:58:31;8.32;;;2.00;;
62010;SDS011;47967;51.756;10.174;2022-10-17T15:02:34;5.25;;;1.83;;
62010;SDS011;47967;51.756;10.174;2022-10-17T15:06:38;5.70;;;2.00;;
62010;SDS011;47967;51.756;10.174;2022-10-17T15:10:41;6.13;;;1.90;;
62010;SDS011;47967;51.756;10.174;2022-10-17T15:14:45;3.50;;;1.95;;
62010;SDS011;47967;51.756;10.174;2022-10-17T15:18:48;4.22;;;1.70;;
62010;SDS011;47967;51.756;10.174;2022-10-17T15:22:53;4.75;;;2.28;;
62010;SDS011;47967;51.756;10.174;2022-10-17T15:26:56;6.95;;;1.92;;
62010;SDS011;47967;51.756;10.174;2022-10-17T15:30:59;11.38;;;2.30;;
62010;SDS011;47967;51.756;10.174;2022-10-17T15:35:01;7.85;;;2.13;;
62010;SDS011;47967;51.756;10.174;2022-10-17T15:39:06;3.80;;;1.70;;
62010;SDS011;47967;51.756;10.174;2022-10-17T15:43:09;3.30;;;1.90;;
62010;SDS011;47967;51.756;10.174;2022-10-17T15:47:14;7.25;;;2.10;;
62010;SDS011;47967;51.756;10.174;2022-10-17T15:51:23;14.32;;;2.20;;
62010;SDS011;47967;51.756;10.174;2022-10-17T15:55:27;6.85;;;2.20;;
62010;SDS011;47967;51.756;10.174;2022-10-17T15:59:30;7.65;;;2.30;;
62010;SDS011;47967;51.756;10.174;2022-10-17T16:03:35;5.15;;;1.90;;
62010;SDS011;47967;51.756;10.174;2022-10-17T16:07:38;8.50;;;1.90;;
62010;SDS011;47967;51.756;10.174;2022-10-17T16:11:42;7.57;;;2.63;;
62010;SDS011;47967;51.756;10.174;2022-10-17T16:15:45;7.97;;;2.15;;
62010;SDS011;47967;51.756;10.174;2022-10-17T16:19:48;6.50;;;2.50;;
62010;SDS011;47967;51.756;10.174;2022-10-17T16:23:51;6.65;;;2.20;;
62010;SDS011;47967;51.756;10.174;2022-10-17T16:31:58;9.65;;;2.40;;
62010;SDS011;47967;51.756;10.174;2022-10-17T16:36:00;6.85;;;2.22;;
62010;SDS011;47967;51.756;10.174;2022-10-17T16:40:04;12.07;;;2.40;;
62010;SDS011;47967;51.756;10.174;2022-10-17T16:44:10;7.50;;;2.10;;
62010;SDS011;47967;51.756;10.174;2022-10-17T16:48:14;5.50;;;2.97;;
62010;SDS011;47967;51.756;10.174;2022-10-17T16:52:17;3.80;;;2.35;;
62010;SDS011;47967;51.756;10.174;2022-10-17T16:56:21;7.20;;;2.50;;
62010;SDS011;47967;51.756;10.174;2022-10-17T17:00:26;11.23;;;2.33;;
62010;SDS011;47967;51.756;10.174;2022-10-17T17:04:30;5.03;;;2.38;;
62010;SDS011;47967;51.756;10.174;2022-10-17T17:08:33;6.75;;;2.55;;
62010;SDS011;47967;51.756;10.174;2022-10-17T17:12:40;10.88;;;2.80;;
62010;SDS011;47967;51.756;10.174;2022-10-17T17:16:45;14.77;;;2.80;;
62010;SDS011;47967;51.756;10.174;2022-10-17T17:20:47;8.35;;;2.63;;
62010;SDS011;47967;51.756;10.174;2022-10-17T17:24:50;6.93;;;2.78;;
62010;SDS011;47967;51.756;10.174;2022-10-17T17:28:53;6.40;;;2.80;;
62010;SDS011;47967;51.756;10.174;2022-10-17T17:32:59;6.40;;;2.97;;
62010;SDS011;47967;51.756;10.174;2022-10-17T17:37:02;7.82;;;2.70;;
62010;SDS011;47967;51.756;10.174;2022-10-17T17:41:04;7.80;;;3.28;;
62010;SDS011;47967;51.756;10.174;2022-10-17T17:45:07;7.00;;;2.80;;
62010;SDS011;47967;51.756;10.174;2022-10-17T17:49:12;6.93;;;3.00;;
62010;SDS011;47967;51.756;10.174;2022-10-17T17:53:15;4.18;;;2.70;;
62010;SDS011;47967;51.756;10.174;2022-10-17T17:57:19;6.70;;;2.40;;
62010;SDS011;47967;51.756;10.174;2022-10-17T18:01:22;13.02;;;3.35;;
62010;SDS011;47967;51.756;10.174;2022-10-17T18:05:27;7.47;;;3.33;;
62010;SDS011;47967;51.756;10.174;2022-10-17T18:09:30;7.03;;;3.28;;
62010;SDS011;47967;51.756;10.174;2022-10-17T18:13:33;5.05;;;2.83;;
62010;SDS011;47967;51.756;10.174;2022-10-17T18:17:35;6.63;;;3.20;;
62010;SDS011;47967;51.756;10.174;2022-10-17T18:21:40;12.15;;;3.45;;
62010;SDS011;47967;51.756;10.174;2022-10-17T18:25:51;9.60;;;3.58;;
62010;SDS011;47967;51.756;10.174;2022-10-17T18:29:54;7.65;;;3.50;;
62010;SDS011;47967;51.756;10.174;2022-10-17T18:33:57;6.15;;;3.00;;
62010;SDS011;47967;51.756;10.174;2022-10-17T18:38:02;7.72;;;3.25;;
62010;SDS011;47967;51.756;10.174;2022-10-17T18:42:05;9.85;;;3.38;;
62010;SDS011;47967;51.756;10.174;2022-10-17T18:46:10;6.25;;;3.25;;
62010;SDS011;47967;51.756;10.174;2022-10-17T18:50:15;7.55;;;3.10;;
62010;SDS011;47967;51.756;10.174;2022-10-17T18:54:20;4.32;;;3.25;;
62010;SDS011;47967;51.756;10.174;2022-10-17T18:58:24;7.13;;;3.42;;
62010;SDS011;47967;51.756;10.174;2022-10-17T19:02:27;8.32;;;3.17;;
62010;SDS011;47967;51.756;10.174;2022-10-17T19:06:35;9.15;;;3.40;;
62010;SDS011;47967;51.756;10.174;2022-10-17T19:10:43;7.20;;;3.55;;
62010;SDS011;47967;51.756;10.174;2022-10-17T19:14:47;5.82;;;3.20;;
62010;SDS011;47967;51.756;10.174;2022-10-17T19:18:51;7.68;;;3.75;;
62010;SDS011;47967;51.756;10.174;2022-10-17T19:22:54;7.10;;;3.20;;
62010;SDS011;47967;51.756;10.174;2022-10-17T19:26:58;7.82;;;4.05;;
62010;SDS011;47967;51.756;10.174;2022-10-17T19:31:03;8.63;;;3.53;;
62010;SDS011;47967;51.756;10.174;2022-10-17T19:35:07;6.60;;;3.30;;
62010;SDS011;47967;51.756;10.174;2022-10-17T19:39:12;8.48;;;3.80;;
62010;SDS011;47967;51.756;10.174;2022-10-17T19:43:17;9.85;;;4.15;;
62010;SDS011;47967;51.756;10.174;2022-10-17T19:47:20;7.63;;;4.60;;
62010;SDS011;47967;51.756;10.174;2022-10-17T19:51:23;11.85;;;5.88;;
62010;SDS011;47967;51.756;10.174;2022-10-17T19:55:26;8.80;;;4.90;;
62010;SDS011;47967;51.756;10.174;2022-10-17T19:59:30;13.88;;;5.55;;
62010;SDS011;47967;51.756;10.174;2022-10-17T20:03:33;9.90;;;4.82;;
62010;SDS011;47967;51.756;10.174;2022-10-17T20:07:36;11.52;;;5.03;;
62010;SDS011;47967;51.756;10.174;2022-10-17T20:11:38;12.65;;;4.65;;
62010;SDS011;47967;51.756;10.174;2022-10-17T20:15:43;7.95;;;4.50;;
62010;SDS011;47967;51.756;10.174;2022-10-17T20:19:55;8.88;;;4.70;;
62010;SDS011;47967;51.756;10.174;2022-10-17T20:23:57;14.40;;;5.20;;
62010;SDS011;47967;51.756;10.174;2022-10-17T20:32:05;14.35;;;7.10;;
62010;SDS011;47967;51.756;10.174;2022-10-17T20:36:08;11.23;;;5.07;;
62010;SDS011;47967;51.756;10.174;2022-10-17T20:40:12;11.48;;;6.07;;
62010;SDS011;47967;51.756;10.174;2022-10-17T20:44:35;15.73;;;4.60;;
62010;SDS011;47967;51.756;10.174;2022-10-17T20:48:39;11.45;;;4.70;;
62010;SDS011;47967;51.756;10.174;2022-10-17T20:52:41;9.73;;;4.35;;
62010;SDS011;47967;51.756;10.174;2022-10-17T20:56:44;12.07;;;6.68;;
